sensor_id;sensor_type;location;lat;lon;timestamp;P1;durP1;ratioP1;P2;durP2;ratioP2
61704;SDS011;47627;48.078;11.522;2024-02-26T00:00:19;2.35;;;1.92;;
61704;SDS011;47627;48.078;11.522;2024-02-26T00:02:44;4.57;;;2.38;;
61704;SDS011;47627;48.078;11.522;2024-02-26T00:05:09;3.10;;;2.35;;
61704;SDS011;47627;48.078;11.522;2024-02-26T00:07:34;2.30;;;2.05;;
61704;SDS011;47627;48.078;11.522;2024-02-26T00:10:00;4.20;;;2.22;;
61704;SDS011;47627;48.078;11.522;2024-02-26T00:12:25;1.95;;;1.67;;
61704;SDS011;47627;48.078;11.522;2024-02-26T00:14:50;2.30;;;1.60;;
61704;SDS011;47627;48.078;11.522;2024-02-26T00:22:39;2.50;;;2.03;;
61704;SDS011;47627;48.078;11.522;2024-02-26T00:25:04;1.80;;;1.70;;
61704;SDS011;47627;48.078;11.522;2024-02-26T00:27:30;2.53;;;2.33;;
61704;SDS011;47627;48.078;11.522;2024-02-26T00:29:56;2.80;;;2.30;;
61704;SDS011;47627;48.078;11.522;2024-02-26T00:32:21;2.65;;;2.03;;
61704;SDS011;47627;48.078;11.522;2024-02-26T00:34:46;2.38;;;2.03;;
61704;SDS011;47627;48.078;11.522;2024-02-26T00:37:11;3.40;;;2.22;;
61704;SDS011;47627;48.078;11.522;2024-02-26T00:39:37;3.28;;;2.33;;
61704;SDS011;47627;48.078;11.522;2024-02-26T00:42:02;4.03;;;2.78;;
61704;SDS011;47627;48.078;11.522;2024-02-26T00:44:27;9.02;;;5.05;;
61704;SDS011;47627;48.078;11.522;2024-02-26T00:55:34;3.83;;;2.25;;
61704;SDS011;47627;48.078;11.522;2024-02-26T01:03:26;3.95;;;2.20;;
61704;SDS011;47627;48.078;11.522;2024-02-26T01:05:51;3.25;;;2.60;;
61704;SDS011;47627;48.078;11.522;2024-02-26T01:08:16;2.85;;;2.38;;
61704;SDS011;47627;48.078;11.522;2024-02-26T01:10:41;5.20;;;2.50;;
61704;SDS011;47627;48.078;11.522;2024-02-26T01:13:07;3.35;;;2.38;;
61704;SDS011;47627;48.078;11.522;2024-02-26T01:15:32;2.40;;;2.20;;
61704;SDS011;47627;48.078;11.522;2024-02-26T01:17:58;3.60;;;2.72;;
61704;SDS011;47627;48.078;11.522;2024-02-26T01:20:23;3.08;;;2.22;;
61704;SDS011;47627;48.078;11.522;2024-02-26T01:22:48;4.65;;;2.58;;
61704;SDS011;47627;48.078;11.522;2024-02-26T01:25:13;3.25;;;2.28;;
61704;SDS011;47627;48.078;11.522;2024-02-26T01:30:21;3.17;;;2.30;;
61704;SDS011;47627;48.078;11.522;2024-02-26T01:32:46;2.40;;;2.20;;
61704;SDS011;47627;48.078;11.522;2024-02-26T01:35:11;3.35;;;2.00;;
61704;SDS011;47627;48.078;11.522;2024-02-26T01:48:24;2.83;;;2.22;;
61704;SDS011;47627;48.078;11.522;2024-02-26T01:50:50;3.45;;;2.03;;
61704;SDS011;47627;48.078;11.522;2024-02-26T01:53:15;2.35;;;2.10;;
61704;SDS011;47627;48.078;11.522;2024-02-26T01:55:41;2.95;;;2.13;;
61704;SDS011;47627;48.078;11.522;2024-02-26T01:58:06;3.72;;;2.00;;
61704;SDS011;47627;48.078;11.522;2024-02-26T02:00:32;3.67;;;2.55;;
61704;SDS011;47627;48.078;11.522;2024-02-26T02:02:57;4.28;;;2.08;;
61704;SDS011;47627;48.078;11.522;2024-02-26T02:05:23;3.83;;;2.00;;
61704;SDS011;47627;48.078;11.522;2024-02-26T02:13:15;3.08;;;2.00;;
61704;SDS011;47627;48.078;11.522;2024-02-26T02:15:40;2.20;;;1.95;;
61704;SDS011;47627;48.078;11.522;2024-02-26T02:18:06;2.10;;;1.90;;
61704;SDS011;47627;48.078;11.522;2024-02-26T02:20:31;4.32;;;3.22;;
61704;SDS011;47627;48.078;11.522;2024-02-26T02:22:58;3.95;;;2.50;;
61704;SDS011;47627;48.078;11.522;2024-02-26T02:25:23;2.50;;;2.08;;
61704;SDS011;47627;48.078;11.522;2024-02-26T02:30:45;2.40;;;1.58;;
61704;SDS011;47627;48.078;11.522;2024-02-26T02:33:10;2.08;;;1.80;;
61704;SDS011;47627;48.078;11.522;2024-02-26T02:35:37;2.40;;;1.88;;
61704;SDS011;47627;48.078;11.522;2024-02-26T02:54:21;2.83;;;1.40;;
61704;SDS011;47627;48.078;11.522;2024-02-26T02:56:46;1.90;;;1.70;;
61704;SDS011;47627;48.078;11.522;2024-02-26T02:59:12;2.33;;;1.77;;
61704;SDS011;47627;48.078;11.522;2024-02-26T03:01:37;2.78;;;2.22;;
61704;SDS011;47627;48.078;11.522;2024-02-26T03:04:02;3.28;;;2.40;;
61704;SDS011;47627;48.078;11.522;2024-02-26T03:06:28;1.65;;;1.55;;
61704;SDS011;47627;48.078;11.522;2024-02-26T03:08:53;1.60;;;1.48;;
61704;SDS011;47627;48.078;11.522;2024-02-26T03:11:19;2.78;;;1.85;;
61704;SDS011;47627;48.078;11.522;2024-02-26T03:13:44;4.40;;;3.08;;
61704;SDS011;47627;48.078;11.522;2024-02-26T03:16:10;3.83;;;3.03;;
61704;SDS011;47627;48.078;11.522;2024-02-26T03:29:24;1.88;;;1.70;;
61704;SDS011;47627;48.078;11.522;2024-02-26T03:31:49;2.75;;;1.80;;
61704;SDS011;47627;48.078;11.522;2024-02-26T03:34:14;2.38;;;1.88;;
61704;SDS011;47627;48.078;11.522;2024-02-26T03:36:40;1.92;;;1.60;;
61704;SDS011;47627;48.078;11.522;2024-02-26T03:44:43;2.20;;;1.52;;
61704;SDS011;47627;48.078;11.522;2024-02-26T03:47:08;2.17;;;1.60;;
61704;SDS011;47627;48.078;11.522;2024-02-26T03:49:33;3.47;;;1.83;;
61704;SDS011;47627;48.078;11.522;2024-02-26T03:51:58;1.83;;;1.50;;
61704;SDS011;47627;48.078;11.522;2024-02-26T03:54:23;2.35;;;1.50;;
61704;SDS011;47627;48.078;11.522;2024-02-26T03:56:49;3.67;;;1.60;;
61704;SDS011;47627;48.078;11.522;2024-02-26T03:59:14;1.77;;;1.52;;
61704;SDS011;47627;48.078;11.522;2024-02-26T04:01:44;2.10;;;1.60;;
61704;SDS011;47627;48.078;11.522;2024-02-26T04:04:09;1.90;;;1.48;;
61704;SDS011;47627;48.078;11.522;2024-02-26T04:06:35;2.40;;;1.90;;
61704;SDS011;47627;48.078;11.522;2024-02-26T04:11:42;4.70;;;1.90;;
61704;SDS011;47627;48.078;11.522;2024-02-26T04:14:08;2.20;;;1.70;;
61704;SDS011;47627;48.078;11.522;2024-02-26T04:16:34;4.57;;;1.92;;
61704;SDS011;47627;48.078;11.522;2024-02-26T04:19:00;3.15;;;1.92;;
61704;SDS011;47627;48.078;11.522;2024-02-26T04:21:26;2.65;;;1.73;;
61704;SDS011;47627;48.078;11.522;2024-02-26T04:23:51;1.60;;;1.38;;
61704;SDS011;47627;48.078;11.522;2024-02-26T04:26:20;2.10;;;1.63;;
61704;SDS011;47627;48.078;11.522;2024-02-26T04:28:46;3.47;;;1.67;;
61704;SDS011;47627;48.078;11.522;2024-02-26T04:31:11;3.08;;;1.67;;
61704;SDS011;47627;48.078;11.522;2024-02-26T04:33:36;1.88;;;1.75;;
61704;SDS011;47627;48.078;11.522;2024-02-26T04:36:01;2.78;;;1.50;;
61704;SDS011;47627;48.078;11.522;2024-02-26T04:54:45;1.92;;;1.38;;
61704;SDS011;47627;48.078;11.522;2024-02-26T05:15:06;1.38;;;1.20;;
61704;SDS011;47627;48.078;11.522;2024-02-26T05:17:32;1.70;;;1.60;;
61704;SDS011;47627;48.078;11.522;2024-02-26T05:19:57;1.67;;;1.52;;
61704;SDS011;47627;48.078;11.522;2024-02-26T05:22:22;4.00;;;1.60;;
61704;SDS011;47627;48.078;11.522;2024-02-26T05:24:48;2.03;;;1.33;;
61704;SDS011;47627;48.078;11.522;2024-02-26T05:27:13;2.15;;;1.58;;
61704;SDS011;47627;48.078;11.522;2024-02-26T05:29:38;3.70;;;1.63;;
61704;SDS011;47627;48.078;11.522;2024-02-26T05:32:04;2.20;;;1.50;;
61704;SDS011;47627;48.078;11.522;2024-02-26T05:34:29;2.00;;;1.23;;
61704;SDS011;47627;48.078;11.522;2024-02-26T05:36:56;3.20;;;1.60;;
61704;SDS011;47627;48.078;11.522;2024-02-26T05:39:21;3.70;;;1.65;;
61704;SDS011;47627;48.078;11.522;2024-02-26T05:41:46;2.38;;;1.55;;
61704;SDS011;47627;48.078;11.522;2024-02-26T05:44:12;3.85;;;1.52;;
61704;SDS011;47627;48.078;11.522;2024-02-26T05:46:37;6.38;;;1.58;;
61704;SDS011;47627;48.078;11.522;2024-02-26T05:49:02;2.85;;;1.77;;
61704;SDS011;47627;48.078;11.522;2024-02-26T05:51:28;2.58;;;2.03;;
61704;SDS011;47627;48.078;11.522;2024-02-26T05:53:53;2.85;;;1.60;;
61704;SDS011;47627;48.078;11.522;2024-02-26T05:56:21;1.85;;;1.40;;
61704;SDS011;47627;48.078;11.522;2024-02-26T05:58:47;5.00;;;1.60;;
61704;SDS011;47627;48.078;11.522;2024-02-26T06:01:12;4.45;;;1.85;;
61704;SDS011;47627;48.078;11.522;2024-02-26T06:03:38;4.75;;;1.63;;
61704;SDS011;47627;48.078;11.522;2024-02-26T06:06:04;3.38;;;1.60;;
61704;SDS011;47627;48.078;11.522;2024-02-26T06:08:29;2.33;;;1.70;;
61704;SDS011;47627;48.078;11.522;2024-02-26T06:10:55;3.22;;;1.58;;
61704;SDS011;47627;48.078;11.522;2024-02-26T06:13:20;4.47;;;1.48;;
61704;SDS011;47627;48.078;11.522;2024-02-26T06:15:45;1.77;;;1.50;;
61704;SDS011;47627;48.078;11.522;2024-02-26T06:18:11;4.30;;;1.50;;
61704;SDS011;47627;48.078;11.522;2024-02-26T06:20:36;3.25;;;1.65;;
61704;SDS011;47627;48.078;11.522;2024-02-26T06:23:01;4.85;;;1.80;;
61704;SDS011;47627;48.078;11.522;2024-02-26T06:25:26;5.25;;;1.65;;
61704;SDS011;47627;48.078;11.522;2024-02-26T06:27:51;5.57;;;1.80;;
61704;SDS011;47627;48.078;11.522;2024-02-26T06:30:17;2.40;;;1.50;;
61704;SDS011;47627;48.078;11.522;2024-02-26T06:32:42;1.92;;;1.42;;
61704;SDS011;47627;48.078;11.522;2024-02-26T06:35:07;3.75;;;1.40;;
61704;SDS011;47627;48.078;11.522;2024-02-26T06:37:35;4.90;;;1.50;;
61704;SDS011;47627;48.078;11.522;2024-02-26T06:40:00;3.58;;;1.70;;
61704;SDS011;47627;48.078;11.522;2024-02-26T06:42:25;2.00;;;1.48;;
61704;SDS011;47627;48.078;11.522;2024-02-26T06:44:51;1.38;;;1.27;;
61704;SDS011;47627;48.078;11.522;2024-02-26T06:47:16;3.25;;;1.58;;
61704;SDS011;47627;48.078;11.522;2024-02-26T06:49:41;4.25;;;1.50;;
61704;SDS011;47627;48.078;11.522;2024-02-26T06:52:06;4.88;;;1.63;;
61704;SDS011;47627;48.078;11.522;2024-02-26T06:54:32;2.00;;;1.52;;
61704;SDS011;47627;48.078;11.522;2024-02-26T06:56:57;2.88;;;1.63;;
61704;SDS011;47627;48.078;11.522;2024-02-26T06:59:22;6.10;;;1.50;;
61704;SDS011;47627;48.078;11.522;2024-02-26T07:01:48;4.38;;;1.90;;
61704;SDS011;47627;48.078;11.522;2024-02-26T07:04:14;5.55;;;1.90;;
61704;SDS011;47627;48.078;11.522;2024-02-26T07:06:39;3.35;;;1.95;;
61704;SDS011;47627;48.078;11.522;2024-02-26T07:09:05;5.03;;;1.70;;
61704;SDS011;47627;48.078;11.522;2024-02-26T07:11:30;1.90;;;1.40;;
61704;SDS011;47627;48.078;11.522;2024-02-26T07:13:55;3.13;;;1.70;;
61704;SDS011;47627;48.078;11.522;2024-02-26T07:16:20;3.97;;;2.08;;
61704;SDS011;47627;48.078;11.522;2024-02-26T07:18:46;3.53;;;1.38;;
61704;SDS011;47627;48.078;11.522;2024-02-26T07:21:12;3.65;;;1.55;;
61704;SDS011;47627;48.078;11.522;2024-02-26T07:23:37;6.38;;;1.90;;
61704;SDS011;47627;48.078;11.522;2024-02-26T07:26:02;5.28;;;1.60;;
61704;SDS011;47627;48.078;11.522;2024-02-26T07:28:27;3.33;;;1.70;;
61704;SDS011;47627;48.078;11.522;2024-02-26T07:30:53;5.47;;;1.95;;
61704;SDS011;47627;48.078;11.522;2024-02-26T07:33:18;4.03;;;2.28;;
61704;SDS011;47627;48.078;11.522;2024-02-26T07:35:43;5.38;;;2.00;;
61704;SDS011;47627;48.078;11.522;2024-02-26T07:38:09;2.88;;;2.00;;
61704;SDS011;47627;48.078;11.522;2024-02-26T07:40:34;6.22;;;1.75;;
61704;SDS011;47627;48.078;11.522;2024-02-26T07:42:59;7.55;;;2.13;;
61704;SDS011;47627;48.078;11.522;2024-02-26T07:45:24;4.55;;;1.85;;
61704;SDS011;47627;48.078;11.522;2024-02-26T07:47:49;4.97;;;2.30;;
61704;SDS011;47627;48.078;11.522;2024-02-26T07:50:16;8.95;;;5.10;;
61704;SDS011;47627;48.078;11.522;2024-02-26T07:52:42;2.95;;;1.60;;
61704;SDS011;47627;48.078;11.522;2024-02-26T07:55:07;6.88;;;1.77;;
61704;SDS011;47627;48.078;11.522;2024-02-26T07:57:32;4.35;;;2.70;;
61704;SDS011;47627;48.078;11.522;2024-02-26T07:59:58;5.30;;;3.60;;
61704;SDS011;47627;48.078;11.522;2024-02-26T08:02:24;5.95;;;2.03;;
61704;SDS011;47627;48.078;11.522;2024-02-26T08:04:50;1.65;;;1.33;;
61704;SDS011;47627;48.078;11.522;2024-02-26T08:07:15;3.13;;;1.40;;
61704;SDS011;47627;48.078;11.522;2024-02-26T08:09:40;2.90;;;1.60;;
61704;SDS011;47627;48.078;11.522;2024-02-26T08:12:05;3.80;;;2.10;;
61704;SDS011;47627;48.078;11.522;2024-02-26T08:14:31;1.83;;;1.70;;
61704;SDS011;47627;48.078;11.522;2024-02-26T08:16:57;2.90;;;1.55;;
61704;SDS011;47627;48.078;11.522;2024-02-26T08:19:23;3.15;;;1.70;;
61704;SDS011;47627;48.078;11.522;2024-02-26T08:21:48;8.93;;;1.50;;
61704;SDS011;47627;48.078;11.522;2024-02-26T08:24:13;2.75;;;1.98;;
61704;SDS011;47627;48.078;11.522;2024-02-26T08:26:38;7.07;;;1.70;;
61704;SDS011;47627;48.078;11.522;2024-02-26T08:29:03;4.72;;;1.85;;
61704;SDS011;47627;48.078;11.522;2024-02-26T08:31:29;3.85;;;1.90;;
61704;SDS011;47627;48.078;11.522;2024-02-26T08:33:55;3.85;;;1.92;;
61704;SDS011;47627;48.078;11.522;2024-02-26T08:36:20;2.35;;;1.58;;
61704;SDS011;47627;48.078;11.522;2024-02-26T08:38:45;2.28;;;1.80;;
61704;SDS011;47627;48.078;11.522;2024-02-26T08:41:12;4.15;;;1.95;;
61704;SDS011;47627;48.078;11.522;2024-02-26T08:43:38;2.97;;;1.58;;
61704;SDS011;47627;48.078;11.522;2024-02-26T08:46:03;3.03;;;1.27;;
61704;SDS011;47627;48.078;11.522;2024-02-26T08:48:28;2.33;;;1.52;;
61704;SDS011;47627;48.078;11.522;2024-02-26T08:50:53;3.33;;;1.70;;
61704;SDS011;47627;48.078;11.522;2024-02-26T08:53:19;2.85;;;1.20;;
61704;SDS011;47627;48.078;11.522;2024-02-26T08:55:45;3.80;;;1.17;;
61704;SDS011;47627;48.078;11.522;2024-02-26T08:58:10;3.03;;;1.20;;
61704;SDS011;47627;48.078;11.522;2024-02-26T09:00:36;1.33;;;1.10;;
61704;SDS011;47627;48.078;11.522;2024-02-26T09:03:01;3.83;;;1.20;;
61704;SDS011;47627;48.078;11.522;2024-02-26T09:05:26;2.13;;;1.00;;
61704;SDS011;47627;48.078;11.522;2024-02-26T09:07:51;4.95;;;1.27;;
61704;SDS011;47627;48.078;11.522;2024-02-26T09:10:17;1.30;;;1.20;;
61704;SDS011;47627;48.078;11.522;2024-02-26T09:12:42;7.40;;;1.65;;
61704;SDS011;47627;48.078;11.522;2024-02-26T09:15:07;4.32;;;1.50;;
61704;SDS011;47627;48.078;11.522;2024-02-26T09:17:33;3.53;;;1.63;;
61704;SDS011;47627;48.078;11.522;2024-02-26T09:19:58;2.58;;;1.73;;
61704;SDS011;47627;48.078;11.522;2024-02-26T09:22:23;4.95;;;1.33;;
61704;SDS011;47627;48.078;11.522;2024-02-26T09:24:48;6.25;;;1.80;;
61704;SDS011;47627;48.078;11.522;2024-02-26T09:27:16;3.60;;;1.50;;
61704;SDS011;47627;48.078;11.522;2024-02-26T09:29:42;3.47;;;1.45;;
61704;SDS011;47627;48.078;11.522;2024-02-26T09:32:07;4.20;;;1.60;;
61704;SDS011;47627;48.078;11.522;2024-02-26T09:34:32;3.33;;;1.50;;
61704;SDS011;47627;48.078;11.522;2024-02-26T09:36:58;2.67;;;1.70;;
61704;SDS011;47627;48.078;11.522;2024-02-26T09:39:24;4.68;;;1.48;;
61704;SDS011;47627;48.078;11.522;2024-02-26T09:41:49;2.20;;;1.27;;
61704;SDS011;47627;48.078;11.522;2024-02-26T09:44:15;3.58;;;1.40;;
61704;SDS011;47627;48.078;11.522;2024-02-26T09:46:43;2.45;;;1.20;;
61704;SDS011;47627;48.078;11.522;2024-02-26T09:49:09;3.38;;;1.33;;
61704;SDS011;47627;48.078;11.522;2024-02-26T09:51:35;2.03;;;1.48;;
61704;SDS011;47627;48.078;11.522;2024-02-26T09:54:00;2.45;;;1.60;;
61704;SDS011;47627;48.078;11.522;2024-02-26T09:56:28;3.83;;;1.35;;
61704;SDS011;47627;48.078;11.522;2024-02-26T09:58:55;4.70;;;1.63;;
61704;SDS011;47627;48.078;11.522;2024-02-26T10:01:21;2.03;;;1.35;;
61704;SDS011;47627;48.078;11.522;2024-02-26T10:03:48;4.40;;;1.75;;
61704;SDS011;47627;48.078;11.522;2024-02-26T10:06:16;5.18;;;1.63;;
61704;SDS011;47627;48.078;11.522;2024-02-26T10:08:42;2.85;;;1.75;;
61704;SDS011;47627;48.078;11.522;2024-02-26T10:11:08;1.67;;;1.25;;
61704;SDS011;47627;48.078;11.522;2024-02-26T10:13:34;4.25;;;1.40;;
61704;SDS011;47627;48.078;11.522;2024-02-26T10:16:00;2.58;;;1.60;;
61704;SDS011;47627;48.078;11.522;2024-02-26T10:18:28;3.08;;;1.70;;
61704;SDS011;47627;48.078;11.522;2024-02-26T10:21:09;3.65;;;1.67;;
61704;SDS011;47627;48.078;11.522;2024-02-26T10:23:34;3.10;;;1.40;;
61704;SDS011;47627;48.078;11.522;2024-02-26T10:25:59;2.92;;;1.33;;
61704;SDS011;47627;48.078;11.522;2024-02-26T10:28:25;3.38;;;1.85;;
61704;SDS011;47627;48.078;11.522;2024-02-26T10:30:51;2.97;;;1.30;;
61704;SDS011;47627;48.078;11.522;2024-02-26T10:33:16;4.70;;;1.60;;
61704;SDS011;47627;48.078;11.522;2024-02-26T10:35:47;3.20;;;1.20;;
61704;SDS011;47627;48.078;11.522;2024-02-26T10:38:13;1.50;;;1.30;;
61704;SDS011;47627;48.078;11.522;2024-02-26T10:40:41;2.55;;;1.15;;
61704;SDS011;47627;48.078;11.522;2024-02-26T10:43:07;4.15;;;1.30;;
61704;SDS011;47627;48.078;11.522;2024-02-26T10:45:32;1.17;;;0.98;;
61704;SDS011;47627;48.078;11.522;2024-02-26T10:47:57;2.88;;;1.10;;
61704;SDS011;47627;48.078;11.522;2024-02-26T10:50:23;1.80;;;0.93;;
61704;SDS011;47627;48.078;11.522;2024-02-26T10:52:49;1.17;;;0.93;;
61704;SDS011;47627;48.078;11.522;2024-02-26T10:55:15;1.15;;;0.80;;
61704;SDS011;47627;48.078;11.522;2024-02-26T10:57:44;1.50;;;1.08;;
61704;SDS011;47627;48.078;11.522;2024-02-26T11:00:10;2.50;;;1.10;;
61704;SDS011;47627;48.078;11.522;2024-02-26T11:02:37;3.10;;;1.15;;
61704;SDS011;47627;48.078;11.522;2024-02-26T11:05:03;1.67;;;0.82;;
61704;SDS011;47627;48.078;11.522;2024-02-26T11:07:31;2.53;;;1.00;;
61704;SDS011;47627;48.078;11.522;2024-02-26T11:09:57;0.98;;;0.88;;
61704;SDS011;47627;48.078;11.522;2024-02-26T11:12:23;1.52;;;0.93;;
61704;SDS011;47627;48.078;11.522;2024-02-26T11:14:49;2.35;;;1.13;;
61704;SDS011;47627;48.078;11.522;2024-02-26T11:17:17;2.80;;;0.80;;
61704;SDS011;47627;48.078;11.522;2024-02-26T11:19:44;1.55;;;0.70;;
61704;SDS011;47627;48.078;11.522;2024-02-26T11:22:09;2.22;;;0.90;;
61704;SDS011;47627;48.078;11.522;2024-02-26T11:24:35;1.38;;;0.95;;
61704;SDS011;47627;48.078;11.522;2024-02-26T11:27:05;1.25;;;0.70;;
61704;SDS011;47627;48.078;11.522;2024-02-26T11:29:34;1.27;;;0.80;;
61704;SDS011;47627;48.078;11.522;2024-02-26T11:32:02;1.00;;;0.60;;
61704;SDS011;47627;48.078;11.522;2024-02-26T11:34:27;2.30;;;0.60;;
61704;SDS011;47627;48.078;11.522;2024-02-26T11:36:53;1.60;;;0.60;;
61704;SDS011;47627;48.078;11.522;2024-02-26T11:39:19;1.98;;;0.85;;
61704;SDS011;47627;48.078;11.522;2024-02-26T11:41:45;0.85;;;0.68;;
61704;SDS011;47627;48.078;11.522;2024-02-26T11:44:10;1.13;;;0.80;;
61704;SDS011;47627;48.078;11.522;2024-02-26T11:46:39;1.00;;;0.75;;
61704;SDS011;47627;48.078;11.522;2024-02-26T11:49:47;0.55;;;0.52;;
61704;SDS011;47627;48.078;11.522;2024-02-26T11:51:54;0.88;;;0.73;;
61704;SDS011;47627;48.078;11.522;2024-02-26T11:57:04;0.70;;;0.70;;
61704;SDS011;47627;48.078;11.522;2024-02-26T11:59:39;2.03;;;0.70;;
61704;SDS011;47627;48.078;11.522;2024-02-26T12:02:04;1.60;;;0.70;;
61704;SDS011;47627;48.078;11.522;2024-02-26T12:04:30;1.85;;;0.80;;
61704;SDS011;47627;48.078;11.522;2024-02-26T12:06:56;2.90;;;0.75;;
61704;SDS011;47627;48.078;11.522;2024-02-26T12:09:35;0.60;;;0.60;;
61704;SDS011;47627;48.078;11.522;2024-02-26T12:12:01;1.13;;;0.60;;
61704;SDS011;47627;48.078;11.522;2024-02-26T12:14:27;1.77;;;0.60;;
61704;SDS011;47627;48.078;11.522;2024-02-26T12:16:52;2.45;;;0.70;;
61704;SDS011;47627;48.078;11.522;2024-02-26T12:19:18;1.42;;;0.90;;
61704;SDS011;47627;48.078;11.522;2024-02-26T12:21:43;1.40;;;0.70;;
61704;SDS011;47627;48.078;11.522;2024-02-26T12:24:12;0.85;;;0.80;;
61704;SDS011;47627;48.078;11.522;2024-02-26T12:26:38;1.55;;;0.73;;
61704;SDS011;47627;48.078;11.522;2024-02-26T12:29:04;1.23;;;0.80;;
61704;SDS011;47627;48.078;11.522;2024-02-26T12:31:29;1.10;;;0.77;;
61704;SDS011;47627;48.078;11.522;2024-02-26T12:33:56;1.10;;;0.70;;
61704;SDS011;47627;48.078;11.522;2024-02-26T12:36:21;1.92;;;0.80;;
61704;SDS011;47627;48.078;11.522;2024-02-26T12:38:48;5.32;;;0.70;;
61704;SDS011;47627;48.078;11.522;2024-02-26T12:41:13;0.93;;;0.60;;
61704;SDS011;47627;48.078;11.522;2024-02-26T12:43:39;0.70;;;0.70;;
61704;SDS011;47627;48.078;11.522;2024-02-26T12:46:04;1.20;;;0.80;;
61704;SDS011;47627;48.078;11.522;2024-02-26T12:48:30;0.85;;;0.70;;
61704;SDS011;47627;48.078;11.522;2024-02-26T12:50:55;0.70;;;0.70;;
61704;SDS011;47627;48.078;11.522;2024-02-26T12:53:21;0.63;;;0.52;;
61704;SDS011;47627;48.078;11.522;2024-02-26T12:55:47;0.80;;;0.60;;
61704;SDS011;47627;48.078;11.522;2024-02-26T12:58:12;0.90;;;0.55;;
61704;SDS011;47627;48.078;11.522;2024-02-26T13:00:37;2.70;;;0.80;;
61704;SDS011;47627;48.078;11.522;2024-02-26T13:03:03;2.90;;;1.00;;
61704;SDS011;47627;48.078;11.522;2024-02-26T13:05:28;2.70;;;0.65;;
61704;SDS011;47627;48.078;11.522;2024-02-26T13:07:54;2.17;;;0.60;;
61704;SDS011;47627;48.078;11.522;2024-02-26T13:10:19;0.98;;;0.63;;
61704;SDS011;47627;48.078;11.522;2024-02-26T13:12:48;1.95;;;0.63;;
61704;SDS011;47627;48.078;11.522;2024-02-26T13:15:17;0.95;;;0.50;;
61704;SDS011;47627;48.078;11.522;2024-02-26T13:17:46;1.25;;;0.65;;
61704;SDS011;47627;48.078;11.522;2024-02-26T13:20:12;0.88;;;0.60;;
61704;SDS011;47627;48.078;11.522;2024-02-26T13:22:38;0.93;;;0.60;;
61704;SDS011;47627;48.078;11.522;2024-02-26T13:25:03;1.40;;;0.70;;
61704;SDS011;47627;48.078;11.522;2024-02-26T13:27:29;1.90;;;0.75;;
61704;SDS011;47627;48.078;11.522;2024-02-26T13:30:10;2.33;;;0.60;;
61704;SDS011;47627;48.078;11.522;2024-02-26T13:32:36;1.05;;;0.57;;
61704;SDS011;47627;48.078;11.522;2024-02-26T13:35:08;2.45;;;0.80;;
61704;SDS011;47627;48.078;11.522;2024-02-26T13:37:34;1.77;;;0.80;;
61704;SDS011;47627;48.078;11.522;2024-02-26T13:39:59;1.10;;;0.95;;
61704;SDS011;47627;48.078;11.522;2024-02-26T13:42:24;2.83;;;1.25;;
61704;SDS011;47627;48.078;11.522;2024-02-26T13:44:50;1.35;;;0.95;;
61704;SDS011;47627;48.078;11.522;2024-02-26T13:47:16;3.78;;;1.10;;
61704;SDS011;47627;48.078;11.522;2024-02-26T13:49:41;1.75;;;0.90;;
61704;SDS011;47627;48.078;11.522;2024-02-26T13:52:06;1.00;;;0.90;;
61704;SDS011;47627;48.078;11.522;2024-02-26T13:54:32;1.05;;;0.73;;
61704;SDS011;47627;48.078;11.522;2024-02-26T13:56:57;1.48;;;1.05;;
61704;SDS011;47627;48.078;11.522;2024-02-26T13:59:23;1.30;;;1.10;;
61704;SDS011;47627;48.078;11.522;2024-02-26T14:01:48;1.58;;;0.85;;
61704;SDS011;47627;48.078;11.522;2024-02-26T14:04:13;1.30;;;1.20;;
61704;SDS011;47627;48.078;11.522;2024-02-26T14:06:39;1.98;;;0.88;;
61704;SDS011;47627;48.078;11.522;2024-02-26T14:09:04;1.65;;;1.00;;
61704;SDS011;47627;48.078;11.522;2024-02-26T14:11:29;3.63;;;1.10;;
61704;SDS011;47627;48.078;11.522;2024-02-26T14:13:56;3.55;;;1.20;;
61704;SDS011;47627;48.078;11.522;2024-02-26T14:16:21;2.85;;;1.45;;
61704;SDS011;47627;48.078;11.522;2024-02-26T14:18:46;2.97;;;1.10;;
61704;SDS011;47627;48.078;11.522;2024-02-26T14:21:12;2.65;;;1.25;;
61704;SDS011;47627;48.078;11.522;2024-02-26T14:23:37;3.30;;;1.30;;
61704;SDS011;47627;48.078;11.522;2024-02-26T14:26:03;1.38;;;1.15;;
61704;SDS011;47627;48.078;11.522;2024-02-26T14:28:28;3.00;;;1.17;;
61704;SDS011;47627;48.078;11.522;2024-02-26T14:30:54;4.65;;;1.10;;
61704;SDS011;47627;48.078;11.522;2024-02-26T14:33:19;1.73;;;1.20;;
61704;SDS011;47627;48.078;11.522;2024-02-26T14:35:44;1.92;;;1.10;;
61704;SDS011;47627;48.078;11.522;2024-02-26T14:38:10;3.28;;;1.48;;
61704;SDS011;47627;48.078;11.522;2024-02-26T14:40:36;2.05;;;1.20;;
61704;SDS011;47627;48.078;11.522;2024-02-26T14:43:01;4.38;;;1.67;;
61704;SDS011;47627;48.078;11.522;2024-02-26T14:45:27;1.75;;;1.40;;
61704;SDS011;47627;48.078;11.522;2024-02-26T14:47:52;2.97;;;1.40;;
61704;SDS011;47627;48.078;11.522;2024-02-26T14:50:17;2.53;;;1.30;;
61704;SDS011;47627;48.078;11.522;2024-02-26T14:52:42;2.70;;;1.50;;
61704;SDS011;47627;48.078;11.522;2024-02-26T14:55:07;2.05;;;1.17;;
61704;SDS011;47627;48.078;11.522;2024-02-26T14:57:33;6.15;;;1.75;;
61704;SDS011;47627;48.078;11.522;2024-02-26T14:59:58;1.85;;;1.60;;
61704;SDS011;47627;48.078;11.522;2024-02-26T15:02:23;4.13;;;2.03;;
61704;SDS011;47627;48.078;11.522;2024-02-26T15:04:48;3.55;;;2.25;;
61704;SDS011;47627;48.078;11.522;2024-02-26T15:07:14;2.60;;;1.77;;
61704;SDS011;47627;48.078;11.522;2024-02-26T15:09:39;5.05;;;2.22;;
61704;SDS011;47627;48.078;11.522;2024-02-26T15:12:05;6.65;;;2.47;;
61704;SDS011;47627;48.078;11.522;2024-02-26T15:14:33;2.92;;;2.47;;
61704;SDS011;47627;48.078;11.522;2024-02-26T15:16:58;4.53;;;2.20;;
61704;SDS011;47627;48.078;11.522;2024-02-26T15:19:23;2.47;;;2.28;;
61704;SDS011;47627;48.078;11.522;2024-02-26T15:21:48;4.47;;;2.72;;
61704;SDS011;47627;48.078;11.522;2024-02-26T15:24:14;3.75;;;2.20;;
61704;SDS011;47627;48.078;11.522;2024-02-26T15:26:42;4.68;;;2.35;;
61704;SDS011;47627;48.078;11.522;2024-02-26T15:29:07;5.15;;;2.65;;
61704;SDS011;47627;48.078;11.522;2024-02-26T15:31:36;4.82;;;2.75;;
61704;SDS011;47627;48.078;11.522;2024-02-26T15:34:02;5.68;;;2.67;;
61704;SDS011;47627;48.078;11.522;2024-02-26T15:36:27;4.75;;;2.65;;
61704;SDS011;47627;48.078;11.522;2024-02-26T15:38:52;5.47;;;2.70;;
61704;SDS011;47627;48.078;11.522;2024-02-26T15:41:18;4.47;;;2.25;;
61704;SDS011;47627;48.078;11.522;2024-02-26T15:43:43;4.60;;;2.67;;
61704;SDS011;47627;48.078;11.522;2024-02-26T15:46:09;5.18;;;2.53;;
61704;SDS011;47627;48.078;11.522;2024-02-26T15:48:36;4.38;;;2.45;;
61704;SDS011;47627;48.078;11.522;2024-02-26T15:51:01;3.58;;;2.50;;
61704;SDS011;47627;48.078;11.522;2024-02-26T15:53:26;4.28;;;2.53;;
61704;SDS011;47627;48.078;11.522;2024-02-26T15:55:51;4.43;;;2.45;;
61704;SDS011;47627;48.078;11.522;2024-02-26T15:58:17;2.53;;;2.33;;
61704;SDS011;47627;48.078;11.522;2024-02-26T16:00:42;3.53;;;2.45;;
61704;SDS011;47627;48.078;11.522;2024-02-26T16:03:11;3.10;;;2.45;;
61704;SDS011;47627;48.078;11.522;2024-02-26T16:05:37;7.65;;;2.63;;
61704;SDS011;47627;48.078;11.522;2024-02-26T16:08:04;6.20;;;2.45;;
61704;SDS011;47627;48.078;11.522;2024-02-26T16:10:31;6.15;;;2.58;;
61704;SDS011;47627;48.078;11.522;2024-02-26T16:13:00;5.53;;;2.38;;
61704;SDS011;47627;48.078;11.522;2024-02-26T16:15:26;5.15;;;3.47;;
61704;SDS011;47627;48.078;11.522;2024-02-26T16:17:51;6.63;;;3.33;;